Time;durP1;ratioP1;P1;durP2;ratioP2;P2;SDS_P1;SDS_P2;PMS_P1;PMS_P2;Temp;Humidity;BMP_temperature;BMP_pressure;BME280_temperature;BME280_humidity;BME280_pressure;Samples;Min_cycle;Max_cycle;Signal;HPM_P1;HPM_P2
2021/12/17 00:05:12;;;;;;;52.13;23.95;;;8.20;99.90;;;;;;4976132;28;20038;-83
2021/12/17 00:07:16;;;;;;;50.60;23.55;;;8.20;99.90;;;;;;4963768;28;20073;-83
2021/12/17 00:09:45;;;;;;;46.55;22.42;;;8.20;99.90;;;;;;4975964;28;20469;-83
2021/12/17 00:12:14;;;;;;;47.28;22.45;;;8.20;99.90;;;;;;4975051;28;20137;-83
2021/12/17 00:14:43;;;;;;;49.15;23.20;;;8.20;99.90;;;;;;4975550;28;20057;-83
2021/12/17 00:17:14;;;;;;;50.80;23.05;;;8.30;99.90;;;;;;4967610;28;20046;-83
2021/12/17 00:48:21;;;;;;;46.80;22.08;;;8.30;99.90;;;;;;4961022;28;20043;-83
2021/12/17 00:49:49;;;;;;;48.72;21.20;;;8.30;99.90;;;;;;4975682;28;20390;-82
2021/12/17 00:52:15;;;;;;;51.15;22.17;;;8.30;99.90;;;;;;4975101;28;20049;-82
2021/12/17 00:54:42;;;;;;;50.65;21.80;;;8.30;99.90;;;;;;4991117;28;20042;-82
2021/12/17 00:57:16;;;;;;;46.88;21.38;;;8.30;99.90;;;;;;4957501;28;20049;-83
2021/12/17 00:59:48;;;;;;;49.03;21.00;;;8.30;99.90;;;;;;4963374;28;21736;-83
2021/12/17 01:02:17;;;;;;;47.70;21.67;;;8.30;99.90;;;;;;4975459;28;20458;-82
2021/12/17 01:04:49;;;;;;;44.42;20.90;;;8.30;99.90;;;;;;4975088;28;20048;-83
2021/12/17 01:07:15;;;;;;;46.20;21.30;;;8.30;99.90;;;;;;4975465;28;20520;-83
2021/12/17 01:09:45;;;;;;;54.10;22.27;;;8.30;99.90;;;;;;4936840;29;20075;-83
2021/12/17 01:12:12;;;;;;;43.85;19.73;;;8.30;99.90;;;;;;4939556;29;20526;-83
2021/12/17 01:14:40;;;;;;;48.15;20.90;;;8.30;99.90;;;;;;4936564;29;20051;-83
2021/12/17 01:17:08;;;;;;;49.17;21.77;;;8.30;99.90;;;;;;4952742;29;20059;-83
2021/12/17 01:22:53;;;;;;;48.88;21.38;;;8.30;99.90;;;;;;4952557;29;20094;-83
2021/12/17 01:25:00;;;;;;;52.30;21.77;;;8.20;99.90;;;;;;4945957;29;20134;-83
2021/12/17 01:35:42;;;;;;;53.83;22.25;;;8.30;99.90;;;;;;4955750;29;20047;-82
2021/12/17 01:43:41;;;;;;;55.15;21.63;;;8.20;99.90;;;;;;4956133;29;20047;-83
2021/12/17 01:46:08;;;;;;;55.17;21.63;;;8.20;99.90;;;;;;4954693;29;20125;-83
2021/12/17 01:48:54;;;;;;;48.17;21.20;;;8.30;99.90;;;;;;4940036;29;20051;-83
2021/12/17 01:56:57;;;;;;;47.95;20.58;;;8.30;99.90;;;;;;4940584;29;20544;-83
2021/12/17 01:59:38;;;;;;;44.50;20.60;;;8.20;99.90;;;;;;4952673;29;20100;-83
2021/12/17 02:02:06;;;;;;;46.45;19.92;;;8.30;99.90;;;;;;4955680;29;20039;-83
2021/12/17 02:04:34;;;;;;;50.53;21.40;;;8.30;99.90;;;;;;4955523;29;20035;-83
2021/12/17 02:07:01;;;;;;;48.75;21.05;;;8.30;99.90;;;;;;4955558;29;20043;-83
2021/12/17 02:31:23;;;;;;;73.85;23.77;;;8.30;99.90;;;;;;4960271;28;20043;-83
2021/12/17 02:33:50;;;;;;;63.80;22.98;;;8.30;99.90;;;;;;4940851;28;20070;-83
2021/12/17 02:36:20;;;;;;;57.15;22.35;;;8.20;99.90;;;;;;4958363;28;20367;-83
2021/12/17 02:38:46;;;;;;;55.10;22.05;;;8.30;99.90;;;;;;4974471;28;20486;-83
2021/12/17 02:46:40;;;;;;;58.53;22.27;;;8.30;99.90;;;;;;4960547;28;20121;-83
2021/12/17 02:49:07;;;;;;;70.65;22.35;;;8.30;99.90;;;;;;4956648;28;20563;-83
2021/12/17 02:51:33;;;;;;;56.75;22.10;;;8.20;99.90;;;;;;4974027;28;20541;-83
2021/12/17 02:53:59;;;;;;;51.83;21.80;;;8.20;99.90;;;;;;4956473;28;20043;-83
2021/12/17 02:56:25;;;;;;;50.53;20.80;;;8.30;99.90;;;;;;4973460;28;20086;-83
2021/12/17 02:58:53;;;;;;;52.30;20.63;;;8.30;99.90;;;;;;4974184;28;20050;-83
2021/12/17 03:01:19;;;;;;;53.58;21.70;;;8.20;99.90;;;;;;4987249;28;20039;-83
2021/12/17 03:03:49;;;;;;;47.40;21.00;;;8.20;99.90;;;;;;4974047;28;20050;-83
2021/12/17 03:06:15;;;;;;;47.42;20.65;;;8.30;99.90;;;;;;4974019;28;20525;-83
2021/12/17 03:08:42;;;;;;;48.35;19.98;;;8.20;99.90;;;;;;4973774;28;20062;-82
2021/12/17 03:11:09;;;;;;;59.55;21.42;;;8.20;99.90;;;;;;4972882;28;20062;-82
2021/12/17 03:13:37;;;;;;;62.05;21.85;;;8.30;99.90;;;;;;4955795;28;20130;-83
2021/12/17 03:16:23;;;;;;;64.72;22.42;;;8.20;99.90;;;;;;4957687;28;20082;-83
2021/12/17 03:24:03;;;;;;;65.88;21.33;;;8.20;99.90;;;;;;4960272;28;20499;-83
2021/12/17 03:26:29;;;;;;;51.97;21.38;;;8.20;99.90;;;;;;4973152;28;20046;-83
2021/12/17 03:28:58;;;;;;;58.53;22.23;;;8.20;99.90;;;;;;4973711;28;20097;-83
2021/12/17 03:31:25;;;;;;;53.50;20.98;;;8.20;99.90;;;;;;4973405;28;20525;-83
2021/12/17 03:33:55;;;;;;;57.45;21.88;;;8.20;99.90;;;;;;4955189;28;20133;-83
2021/12/17 03:36:21;;;;;;;60.10;21.70;;;8.20;99.90;;;;;;4957553;28;20097;-83
2021/12/17 03:38:50;;;;;;;54.88;20.83;;;8.30;99.90;;;;;;4945298;28;20074;-82
2021/12/17 03:41:23;;;;;;;62.15;22.58;;;8.20;99.90;;;;;;4972515;28;20058;-82
2021/12/17 03:43:51;;;;;;;59.30;21.45;;;8.20;99.90;;;;;;4958103;28;20407;-82
2021/12/17 03:46:18;;;;;;;62.22;21.90;;;8.20;99.90;;;;;;4973226;28;20483;-82
2021/12/17 03:48:44;;;;;;;58.20;21.67;;;8.20;99.90;;;;;;4972920;28;20042;-82
2021/12/17 03:51:16;;;;;;;63.00;22.30;;;8.20;99.90;;;;;;4963992;28;20047;-82
2021/12/17 03:53:45;;;;;;;59.55;21.83;;;8.20;99.90;;;;;;4973029;28;20045;-82
2021/12/17 03:56:11;;;;;;;57.00;21.98;;;8.20;99.90;;;;;;4972378;28;20399;-82
2021/12/17 03:58:37;;;;;;;57.28;21.10;;;8.20;99.90;;;;;;4989168;28;20043;-83
2021/12/17 04:01:04;;;;;;;61.65;21.17;;;8.10;99.90;;;;;;4972975;28;20034;-83
2021/12/17 04:03:29;;;;;;;55.95;20.55;;;8.20;99.90;;;;;;4970472;28;20039;-83
2021/12/17 04:05:55;;;;;;;59.50;21.10;;;8.10;99.90;;;;;;4972333;28;20061;-83
2021/12/17 04:08:21;;;;;;;60.25;21.17;;;8.10;99.90;;;;;;4956143;28;20047;-83
2021/12/17 04:10:50;;;;;;;56.05;21.13;;;8.10;99.90;;;;;;4954220;28;20056;-83
2021/12/17 04:15:55;;;;;;;56.95;21.63;;;8.10;99.90;;;;;;4959496;28;20042;-83
2021/12/17 04:18:21;;;;;;;54.70;20.98;;;8.10;99.90;;;;;;4972098;28;20050;-83
2021/12/17 04:20:47;;;;;;;63.03;20.17;;;8.10;99.90;;;;;;4959486;28;20045;-83
2021/12/17 04:23:13;;;;;;;59.53;20.67;;;8.10;99.90;;;;;;4991341;28;20038;-83
2021/12/17 04:25:39;;;;;;;72.15;21.95;;;8.10;99.90;;;;;;4991101;28;20589;-83
2021/12/17 04:28:05;;;;;;;65.43;20.42;;;8.10;99.90;;;;;;4958163;28;20052;-83
2021/12/17 04:30:31;;;;;;;63.35;21.58;;;8.10;99.90;;;;;;4988294;28;20145;-83
2021/12/17 04:32:58;;;;;;;57.20;21.00;;;8.00;99.90;;;;;;4972294;28;20073;-83
2021/12/17 04:35:24;;;;;;;55.80;20.88;;;8.00;99.90;;;;;;4955549;28;20129;-83
2021/12/17 04:37:50;;;;;;;49.00;19.77;;;8.00;99.90;;;;;;4967678;28;20129;-83
2021/12/17 04:40:18;;;;;;;50.30;19.25;;;8.10;99.90;;;;;;4958324;28;20065;-83
2021/12/17 04:45:28;;;;;;;48.90;19.23;;;8.00;99.90;;;;;;4971860;28;20129;-83
2021/12/17 04:58:51;;;;;;;46.58;19.05;;;8.10;99.90;;;;;;4977444;28;20141;-83
2021/12/17 05:01:17;;;;;;;60.97;20.20;;;8.00;99.90;;;;;;4963442;28;20399;-83
2021/12/17 05:03:43;;;;;;;51.85;19.63;;;8.00;99.90;;;;;;4962500;28;20126;-83
2021/12/17 05:06:09;;;;;;;48.95;18.13;;;8.00;99.90;;;;;;4976926;28;20035;-83
2021/12/17 05:08:35;;;;;;;45.55;17.60;;;8.00;99.90;;;;;;4989930;28;20055;-83
2021/12/17 05:11:15;;;;;;;43.63;17.10;;;8.00;99.90;;;;;;4959464;28;20043;-83
2021/12/17 05:19:22;;;;;;;39.80;16.80;;;8.00;99.90;;;;;;4975914;28;20047;-82
2021/12/17 05:21:48;;;;;;;42.95;17.00;;;8.00;99.90;;;;;;4961429;28;20122;-82
2021/12/17 05:24:13;;;;;;;42.42;17.10;;;8.00;99.90;;;;;;4958775;28;20130;-82
2021/12/17 05:26:39;;;;;;;45.85;16.15;;;8.00;99.90;;;;;;4971115;28;20509;-82
2021/12/17 05:29:05;;;;;;;46.92;16.73;;;8.00;99.90;;;;;;4963840;28;20043;-82
2021/12/17 05:31:31;;;;;;;67.35;18.60;;;8.00;99.90;;;;;;4975584;28;20042;-82
2021/12/17 05:33:59;;;;;;;44.22;16.63;;;8.00;99.90;;;;;;4958918;28;20043;-83
2021/12/17 05:36:25;;;;;;;56.22;17.65;;;8.00;99.90;;;;;;4963017;28;20090;-83
2021/12/17 05:38:50;;;;;;;36.60;15.95;;;8.00;99.90;;;;;;4975469;28;20047;-83
2021/12/17 05:41:16;;;;;;;44.20;16.60;;;8.00;99.90;;;;;;4974127;28;21653;-83
2021/12/17 05:43:42;;;;;;;50.20;17.38;;;8.00;99.90;;;;;;4974303;28;20046;-83
2021/12/17 05:46:12;;;;;;;41.40;16.08;;;8.00;99.90;;;;;;4953346;28;20043;-83
2021/12/17 05:48:39;;;;;;;36.50;15.20;;;8.00;99.90;;;;;;4975502;28;20121;-83
2021/12/17 05:51:08;;;;;;;40.72;16.20;;;8.00;99.90;;;;;;4975144;28;20047;-82
2021/12/17 05:53:34;;;;;;;43.05;16.15;;;8.00;99.90;;;;;;4975378;28;20047;-82
2021/12/17 05:56:00;;;;;;;44.50;16.80;;;8.00;99.90;;;;;;4973882;28;20039;-82
2021/12/17 05:58:27;;;;;;;42.50;17.30;;;8.00;99.90;;;;;;4956034;29;20055;-82
2021/12/17 06:00:54;;;;;;;48.72;17.77;;;8.00;99.90;;;;;;4967431;28;20039;-82
2021/12/17 06:03:20;;;;;;;45.30;17.20;;;8.00;99.90;;;;;;4975172;28;20074;-82
2021/12/17 06:05:46;;;;;;;36.30;16.27;;;8.00;99.90;;;;;;4974227;28;20039;-82
2021/12/17 06:08:12;;;;;;;35.97;15.98;;;8.00;99.90;;;;;;4976263;28;20462;-82
2021/12/17 06:10:38;;;;;;;37.88;15.57;;;8.00;99.90;;;;;;4965183;28;20494;-82
2021/12/17 06:13:05;;;;;;;36.05;15.35;;;8.00;99.90;;;;;;4978295;28;20052;-82
2021/12/17 06:15:30;;;;;;;32.85;15.15;;;8.00;99.90;;;;;;4958388;28;20039;-82
2021/12/17 06:17:56;;;;;;;38.65;15.98;;;8.00;99.90;;;;;;4978151;28;20053;-83
2021/12/17 06:20:24;;;;;;;54.83;17.55;;;8.00;99.90;;;;;;4958377;28;20042;-83
2021/12/17 06:22:51;;;;;;;33.60;14.90;;;8.00;99.90;;;;;;4970750;28;20045;-83
2021/12/17 06:25:17;;;;;;;32.58;14.38;;;8.00;99.90;;;;;;4959587;28;20050;-83
2021/12/17 06:27:43;;;;;;;34.50;13.80;;;7.90;99.90;;;;;;4974115;28;20492;-84
2021/12/17 06:30:12;;;;;;;33.85;14.38;;;7.90;99.90;;;;;;4980604;28;20083;-83
2021/12/17 06:32:37;;;;;;;30.58;14.27;;;7.90;99.90;;;;;;4976794;28;20038;-83
2021/12/17 06:35:05;;;;;;;31.25;13.45;;;7.90;99.90;;;;;;4960966;28;20181;-84
2021/12/17 06:37:31;;;;;;;34.53;13.70;;;7.90;99.90;;;;;;4978179;28;20096;-83
2021/12/17 06:39:58;;;;;;;32.85;13.55;;;8.00;99.90;;;;;;4976730;28;20038;-86
2021/12/17 06:42:26;;;;;;;39.33;14.63;;;7.90;99.90;;;;;;4954752;28;20041;-85
2021/12/17 06:44:56;;;;;;;29.73;12.52;;;7.90;99.90;;;;;;4960017;28;20085;-85
2021/12/17 06:47:31;;;;;;;32.97;13.75;;;7.90;99.90;;;;;;4986571;28;20050;-85
2021/12/17 06:54:39;;;;;;;30.42;12.70;;;7.90;99.90;;;;;;4975750;28;20498;-83
2021/12/17 06:58:44;;;;;;;33.30;12.70;;;7.90;99.90;;;;;;4974205;28;20038;-84
2021/12/17 07:09:34;;;;;;;25.63;12.43;;;7.80;99.90;;;;;;4954375;28;20503;-84
2021/12/17 07:35:40;;;;;;;27.15;12.30;;;7.90;99.90;;;;;;4955760;28;20113;-83
2021/12/17 07:40:52;;;;;;;33.13;13.30;;;7.90;99.90;;;;;;4975068;28;20051;-83
2021/12/17 07:43:34;;;;;;;30.50;14.02;;;7.90;99.90;;;;;;4960664;28;20125;-83
2021/12/17 07:46:00;;;;;;;30.48;12.95;;;7.90;99.90;;;;;;4975392;28;20042;-83
2021/12/17 07:48:26;;;;;;;33.92;13.93;;;7.90;99.90;;;;;;4940590;28;20494;-83
2021/12/17 07:50:52;;;;;;;29.08;12.90;;;7.80;99.90;;;;;;4950947;28;20687;-83
2021/12/17 07:53:18;;;;;;;31.17;14.07;;;7.90;99.90;;;;;;4975693;28;20070;-82
2021/12/17 07:55:44;;;;;;;32.15;14.07;;;7.90;99.90;;;;;;4973917;28;20042;-82
2021/12/17 07:58:10;;;;;;;27.40;13.55;;;7.90;99.90;;;;;;4971757;28;20043;-82
2021/12/17 08:00:36;;;;;;;30.05;13.73;;;7.90;99.90;;;;;;4963499;28;20042;-83
2021/12/17 08:03:02;;;;;;;32.35;14.55;;;7.90;99.90;;;;;;4975838;28;20042;-83
2021/12/17 08:05:28;;;;;;;29.77;14.00;;;7.90;99.90;;;;;;4975194;28;20532;-83
2021/12/17 08:07:54;;;;;;;30.50;14.40;;;7.90;99.90;;;;;;4959996;28;20042;-83
2021/12/17 08:10:20;;;;;;;35.13;15.13;;;7.90;99.90;;;;;;4948337;29;20066;-83
2021/12/17 08:12:46;;;;;;;35.53;16.10;;;7.90;99.90;;;;;;4921934;29;20118;-84
2021/12/17 08:15:13;;;;;;;48.67;17.83;;;7.90;99.90;;;;;;4937015;29;20071;-84
2021/12/17 08:18:07;;;;;;;39.13;16.25;;;8.00;99.90;;;;;;4935657;29;20063;-84
2021/12/17 08:24:00;;;;;;;37.63;16.17;;;8.00;99.90;;;;;;4938611;29;20411;-84
2021/12/17 08:26:14;;;;;;;32.97;16.20;;;8.00;99.90;;;;;;4956055;28;20043;-84
2021/12/17 08:31:25;;;;;;;35.33;16.33;;;8.00;99.90;;;;;;4920156;29;20043;-85
2021/12/17 08:33:52;;;;;;;46.85;18.58;;;8.00;99.90;;;;;;4936860;29;20047;-84
2021/12/17 08:36:18;;;;;;;38.95;17.08;;;8.00;99.90;;;;;;4946825;29;20051;-83
2021/12/17 08:38:50;;;;;;;32.50;15.88;;;8.00;99.90;;;;;;4933624;29;20070;-84
2021/12/17 08:41:17;;;;;;;33.15;16.38;;;8.00;99.90;;;;;;4935763;29;20043;-81
2021/12/17 08:43:44;;;;;;;30.35;15.48;;;8.10;99.90;;;;;;4936787;29;20119;-81
2021/12/17 08:46:10;;;;;;;32.67;16.27;;;8.10;99.90;;;;;;4936662;29;20046;-81
2021/12/17 08:48:36;;;;;;;32.08;15.95;;;8.10;99.90;;;;;;4918599;29;20039;-81
2021/12/17 08:51:03;;;;;;;34.63;17.52;;;8.10;99.90;;;;;;4933598;29;20081;-81
2021/12/17 08:53:29;;;;;;;37.10;17.02;;;8.10;99.90;;;;;;4953315;29;20398;-81
2021/12/17 08:55:54;;;;;;;33.75;16.92;;;8.10;99.90;;;;;;4922594;29;20138;-82
2021/12/17 08:58:20;;;;;;;33.67;16.52;;;8.20;99.90;;;;;;4965703;29;20102;-81
2021/12/17 09:00:47;;;;;;;30.48;16.00;;;8.20;99.90;;;;;;4971195;29;20063;-83
2021/12/17 09:03:13;;;;;;;34.75;16.60;;;8.20;99.90;;;;;;4957201;29;20395;-81
2021/12/17 09:05:44;;;;;;;33.88;17.33;;;8.20;99.90;;;;;;4956912;29;20094;-82
2021/12/17 09:08:11;;;;;;;28.98;15.63;;;8.20;99.90;;;;;;4961266;28;20043;-82
2021/12/17 09:10:37;;;;;;;34.75;17.65;;;8.20;99.90;;;;;;4976477;28;20039;-82
2021/12/17 09:13:05;;;;;;;45.47;18.80;;;8.30;99.90;;;;;;4979074;28;20038;-82
2021/12/17 09:15:31;;;;;;;38.13;18.40;;;8.30;99.90;;;;;;4976065;28;20035;-81
2021/12/17 09:17:57;;;;;;;35.53;17.38;;;8.30;99.90;;;;;;4976765;28;20053;-82
2021/12/17 09:20:23;;;;;;;33.65;16.92;;;8.30;99.90;;;;;;4961078;28;20046;-81
2021/12/17 09:22:49;;;;;;;34.25;17.27;;;8.30;99.90;;;;;;4972750;28;20043;-81
2021/12/17 09:25:15;;;;;;;34.47;17.70;;;8.40;99.90;;;;;;4959876;28;20042;-81
2021/12/17 09:27:41;;;;;;;31.92;16.90;;;8.30;99.90;;;;;;4972850;28;20105;-81
2021/12/17 09:30:14;;;;;;;29.42;16.75;;;8.40;99.90;;;;;;4961800;28;20043;-81
2021/12/17 09:32:40;;;;;;;31.83;17.10;;;8.40;99.90;;;;;;4974518;28;20081;-82
2021/12/17 09:35:07;;;;;;;33.38;17.33;;;8.40;99.90;;;;;;4988761;28;20042;-81
2021/12/17 09:37:33;;;;;;;35.55;18.13;;;8.40;99.90;;;;;;4968387;28;20402;-81
2021/12/17 09:39:59;;;;;;;32.63;17.38;;;8.40;99.90;;;;;;4952477;28;20538;-81
2021/12/17 09:42:25;;;;;;;36.80;18.15;;;8.40;99.90;;;;;;4960091;28;20173;-81
2021/12/17 09:44:51;;;;;;;35.15;18.83;;;8.40;99.90;;;;;;4976623;28;20494;-81
2021/12/17 09:47:17;;;;;;;35.08;18.63;;;8.50;99.90;;;;;;4969513;28;20042;-81
2021/12/17 09:49:45;;;;;;;35.13;18.67;;;8.50;99.90;;;;;;4995995;28;20493;-81
2021/12/17 09:52:11;;;;;;;32.97;18.05;;;8.50;99.90;;;;;;4976227;28;20387;-81
2021/12/17 09:54:37;;;;;;;35.40;19.13;;;8.50;99.90;;;;;;4979106;28;20045;-81
2021/12/17 09:57:04;;;;;;;38.38;19.13;;;8.50;99.90;;;;;;4982443;28;20042;-82
2021/12/17 09:59:30;;;;;;;35.78;19.15;;;8.50;99.90;;;;;;4984646;28;20526;-81
2021/12/17 10:01:56;;;;;;;37.80;18.73;;;8.60;99.90;;;;;;4971137;28;20049;-81
2021/12/17 10:04:28;;;;;;;31.13;17.70;;;8.50;99.90;;;;;;4972234;28;20070;-81
2021/12/17 10:07:17;;;;;;;37.50;19.45;;;8.60;99.90;;;;;;4987095;28;20042;-81
2021/12/17 10:09:53;;;;;;;38.55;19.60;;;8.60;99.90;;;;;;4972562;28;20058;-81
2021/12/17 10:12:32;;;;;;;35.92;18.63;;;8.60;99.90;;;;;;4983195;28;20189;-81
2021/12/17 10:15:19;;;;;;;31.55;18.02;;;8.60;99.90;;;;;;4998801;28;20050;-81
2021/12/17 10:17:59;;;;;;;33.25;17.80;;;8.60;99.90;;;;;;4996418;28;20050;-81
2021/12/17 10:20:26;;;;;;;34.55;18.23;;;8.60;99.90;;;;;;4983782;28;20046;-81
2021/12/17 10:23:09;;;;;;;34.28;17.65;;;8.70;99.90;;;;;;4984028;28;20042;-81
2021/12/17 10:25:40;;;;;;;33.55;18.30;;;8.70;99.90;;;;;;4983849;28;20077;-81
2021/12/17 10:28:07;;;;;;;34.20;17.98;;;8.70;99.90;;;;;;4983996;28;20070;-81
2021/12/17 10:30:38;;;;;;;35.60;19.02;;;8.70;99.90;;;;;;4968022;28;20074;-81
2021/12/17 10:33:07;;;;;;;34.03;18.23;;;8.80;99.90;;;;;;4972790;28;20078;-81
2021/12/17 10:35:38;;;;;;;34.00;18.88;;;8.80;99.90;;;;;;4982489;28;20769;-81
2021/12/17 10:38:12;;;;;;;36.50;18.98;;;8.90;99.90;;;;;;4974683;28;20101;-81
2021/12/17 10:40:48;;;;;;;30.25;17.75;;;8.90;99.90;;;;;;4983198;28;20154;-81
2021/12/17 10:43:24;;;;;;;31.92;17.45;;;8.90;99.90;;;;;;4972181;28;20218;-81
2021/12/17 10:51:15;;;;;;;27.80;17.13;;;8.90;99.90;;;;;;4983181;28;20051;-81
2021/12/17 10:53:46;;;;;;;31.05;17.20;;;8.90;99.90;;;;;;4983233;28;20050;-81
2021/12/17 10:56:16;;;;;;;30.42;17.30;;;8.90;99.90;;;;;;4973892;28;20035;-81
2021/12/17 10:59:03;;;;;;;29.10;16.25;;;8.90;99.90;;;;;;4977550;28;20400;-81
2021/12/17 11:01:41;;;;;;;27.38;16.67;;;9.00;99.90;;;;;;4983519;28;20042;-81
2021/12/17 11:04:24;;;;;;;27.45;15.88;;;9.00;99.90;;;;;;4982671;28;20157;-81
2021/12/17 11:06:52;;;;;;;29.67;17.33;;;9.00;99.90;;;;;;4981322;28;20034;-81
2021/12/17 11:09:54;;;;;;;30.60;17.90;;;9.00;99.90;;;;;;4971349;28;20062;-81
2021/12/17 11:12:23;;;;;;;30.15;16.92;;;9.00;99.90;;;;;;4998043;28;20054;-81
2021/12/17 11:14:49;;;;;;;31.25;18.13;;;9.00;99.90;;;;;;4981063;28;20048;-81
2021/12/17 11:17:17;;;;;;;31.95;18.33;;;9.00;99.90;;;;;;4982704;28;20097;-81
2021/12/17 11:19:44;;;;;;;28.77;18.05;;;9.00;99.90;;;;;;4961802;28;20495;-81
2021/12/17 11:22:10;;;;;;;28.45;17.88;;;9.10;99.90;;;;;;4966073;28;20074;-81
2021/12/17 11:24:37;;;;;;;28.42;17.88;;;9.10;99.90;;;;;;4981865;28;20103;-81
2021/12/17 11:27:05;;;;;;;31.48;18.17;;;9.10;99.90;;;;;;4966363;28;20121;-81
2021/12/17 11:29:31;;;;;;;29.27;17.90;;;9.10;99.90;;;;;;4982959;28;20050;-81
2021/12/17 11:32:02;;;;;;;31.85;18.52;;;9.10;99.90;;;;;;4966326;28;20102;-81
2021/12/17 11:34:32;;;;;;;30.92;18.45;;;9.10;99.90;;;;;;4983371;28;20069;-81
2021/12/17 11:37:01;;;;;;;27.40;17.67;;;9.20;99.90;;;;;;4982755;28;20054;-81
2021/12/17 11:39:31;;;;;;;31.88;18.70;;;9.20;99.90;;;;;;4982199;28;20074;-81
2021/12/17 11:42:24;;;;;;;30.52;17.92;;;9.20;99.90;;;;;;4981651;28;20438;-81
2021/12/17 11:45:23;;;;;;;30.52;18.15;;;9.20;99.90;;;;;;4979672;28;20109;-81
2021/12/17 11:47:41;;;;;;;29.98;18.40;;;9.20;99.90;;;;;;4982203;28;20507;-81
2021/12/17 11:50:10;;;;;;;32.47;18.70;;;9.20;99.90;;;;;;4966404;28;20138;-81
2021/12/17 11:52:38;;;;;;;30.13;17.75;;;9.20;99.90;;;;;;4966669;28;20046;-81
2021/12/17 11:55:25;;;;;;;30.55;17.80;;;9.20;99.90;;;;;;4975404;28;20047;-81
2021/12/17 11:57:55;;;;;;;29.35;17.48;;;9.20;99.90;;;;;;4981945;28;20070;-81
2021/12/17 12:00:30;;;;;;;31.88;18.60;;;9.30;99.90;;;;;;4982524;28;20083;-81
2021/12/17 12:03:29;;;;;;;29.25;17.50;;;9.20;99.90;;;;;;4982276;28;20073;-81
2021/12/17 12:05:58;;;;;;;29.88;18.15;;;9.30;99.90;;;;;;4980404;28;20046;-81
2021/12/17 12:08:32;;;;;;;31.08;17.83;;;9.30;99.90;;;;;;4982682;28;20162;-81
2021/12/17 12:11:03;;;;;;;31.08;18.08;;;9.30;99.90;;;;;;5001403;28;20084;-81
2021/12/17 12:13:35;;;;;;;32.63;18.98;;;9.30;99.90;;;;;;4977241;28;20043;-81
2021/12/17 12:16:03;;;;;;;32.25;18.27;;;9.30;99.90;;;;;;4979905;28;20046;-81
2021/12/17 12:19:04;;;;;;;33.72;20.00;;;9.30;99.90;;;;;;4983903;28;20125;-81
2021/12/17 12:21:37;;;;;;;29.63;17.73;;;9.40;99.90;;;;;;4965706;28;20114;-81
2021/12/17 12:24:05;;;;;;;30.98;19.13;;;9.40;99.90;;;;;;4970040;28;20034;-81
2021/12/17 12:26:38;;;;;;;31.58;18.73;;;9.40;99.90;;;;;;4984579;28;20098;-81
2021/12/17 12:29:09;;;;;;;;;;;9.40;99.90;;;;;;4981707;28;20124;-81
2021/12/17 12:31:38;;;;;;;33.58;19.98;;;9.40;99.90;;;;;;4985887;28;19996;-81
2021/12/17 12:34:20;;;;;;;29.15;18.63;;;9.50;99.90;;;;;;4977031;28;20054;-81
2021/12/17 12:36:50;;;;;;;30.52;17.00;;;9.50;99.90;;;;;;4979743;28;20043;-81
2021/12/17 12:39:36;;;;;;;26.15;16.42;;;9.40;99.90;;;;;;4982543;28;20043;-81
2021/12/17 12:42:04;;;;;;;27.35;16.40;;;9.40;99.90;;;;;;4977224;28;20038;-81
2021/12/17 12:44:42;;;;;;;27.08;16.20;;;9.40;99.90;;;;;;4977307;28;20398;-81
2021/12/17 12:47:09;;;;;;;26.23;15.52;;;9.40;99.90;;;;;;4999123;28;20050;-81
2021/12/17 12:49:54;;;;;;;22.90;13.85;;;9.40;99.90;;;;;;4998850;28;20080;-81
2021/12/17 12:52:23;;;;;;;22.20;14.70;;;9.30;99.90;;;;;;4983655;28;20038;-81
2021/12/17 12:54:50;;;;;;;26.20;15.20;;;9.30;99.90;;;;;;4983621;28;20471;-81
2021/12/17 12:57:28;;;;;;;21.77;13.32;;;9.30;99.90;;;;;;4974709;28;20074;-81
2021/12/17 12:59:56;;;;;;;23.75;14.13;;;9.30;99.90;;;;;;4981234;28;20035;-81
2021/12/17 13:02:25;;;;;;;20.42;13.48;;;9.30;99.90;;;;;;4981543;28;20046;-81
2021/12/17 13:04:55;;;;;;;19.35;12.25;;;9.20;99.90;;;;;;4974876;28;20105;-81
2021/12/17 13:07:43;;;;;;;19.65;11.65;;;9.20;99.90;;;;;;4984838;28;20035;-81
2021/12/17 13:10:27;;;;;;;18.67;11.07;;;9.20;99.90;;;;;;4975467;28;20147;-81
2021/12/17 13:13:02;;;;;;;19.02;11.07;;;9.20;99.90;;;;;;4978125;28;20520;-81
2021/12/17 13:15:41;;;;;;;17.17;10.77;;;9.20;99.90;;;;;;4975314;28;20121;-81
2021/12/17 13:23:19;;;;;;;15.98;10.50;;;9.20;99.90;;;;;;4983906;28;20442;-81
2021/12/17 13:25:45;;;;;;;16.73;9.70;;;9.20;99.90;;;;;;4983665;28;20045;-81
2021/12/17 13:28:12;;;;;;;17.83;10.50;;;9.20;99.90;;;;;;4972417;28;20549;-81
2021/12/17 13:30:38;;;;;;;17.98;10.60;;;9.20;99.90;;;;;;4978673;28;20122;-81
2021/12/17 13:33:04;;;;;;;17.25;9.75;;;9.20;99.90;;;;;;4969907;28;20077;-81
2021/12/17 13:35:34;;;;;;;15.65;9.40;;;9.20;99.90;;;;;;4984111;28;20046;-82
2021/12/17 13:38:01;;;;;;;15.10;9.02;;;9.20;99.90;;;;;;4976376;28;20046;-81
2021/12/17 13:40:27;;;;;;;15.85;9.50;;;9.20;99.90;;;;;;4975199;28;20074;-81
2021/12/17 13:42:55;;;;;;;14.73;9.10;;;9.20;99.90;;;;;;4976670;28;20046;-81
2021/12/17 13:45:21;;;;;;;16.48;9.48;;;9.20;99.90;;;;;;4992549;28;20517;-81
2021/12/17 13:47:54;;;;;;;16.70;9.82;;;9.20;99.90;;;;;;4964839;28;20089;-81
2021/12/17 13:50:21;;;;;;;16.50;9.90;;;9.20;99.90;;;;;;4988100;28;20123;-81
2021/12/17 13:52:54;;;;;;;16.65;9.65;;;9.20;99.90;;;;;;4983127;28;20516;-81
2021/12/17 13:55:29;;;;;;;16.67;9.88;;;9.20;99.90;;;;;;4976588;28;20065;-81
2021/12/17 13:57:56;;;;;;;16.65;9.23;;;9.30;99.90;;;;;;4979463;28;20042;-82
2021/12/17 14:00:32;;;;;;;13.43;8.40;;;9.30;99.90;;;;;;4972818;28;20038;-81
2021/12/17 14:02:59;;;;;;;12.25;8.23;;;9.30;99.90;;;;;;4985246;28;20039;-81
2021/12/17 14:05:29;;;;;;;14.55;8.50;;;9.30;99.90;;;;;;4973676;28;20101;-81
2021/12/17 14:07:59;;;;;;;9.63;5.50;;;9.30;99.90;;;;;;4974885;28;20514;-81
2021/12/17 14:10:31;;;;;;;10.63;6.22;;;9.30;99.90;;;;;;4993121;28;20061;-82
2021/12/17 14:12:57;;;;;;;9.63;6.05;;;9.30;99.90;;;;;;4993660;28;20047;-82
2021/12/17 14:15:28;;;;;;;9.65;6.38;;;9.30;99.90;;;;;;4973391;28;20084;-82
2021/12/17 14:18:00;;;;;;;12.25;7.70;;;9.30;99.90;;;;;;4976382;28;20046;-81
2021/12/17 14:20:47;;;;;;;13.80;9.05;;;9.20;99.90;;;;;;4976665;28;20498;-80
2021/12/17 14:23:22;;;;;;;11.60;7.18;;;9.20;99.90;;;;;;4980396;28;20053;-80
2021/12/17 14:25:49;;;;;;;7.95;4.30;;;9.20;99.90;;;;;;4977347;28;20034;-80
2021/12/17 14:28:32;;;;;;;7.32;3.95;;;9.20;99.90;;;;;;4979427;28;20041;-82
2021/12/17 14:31:04;;;;;;;13.48;9.32;;;9.20;99.90;;;;;;4969357;28;20431;-81
2021/12/17 14:33:39;;;;;;;9.55;5.22;;;9.20;99.90;;;;;;4979822;28;20044;-81
2021/12/17 14:36:07;;;;;;;9.48;7.07;;;9.20;99.90;;;;;;4978670;28;20050;-81
2021/12/17 14:38:48;;;;;;;7.50;4.13;;;9.10;99.90;;;;;;4984203;28;20041;-81
2021/12/17 14:41:29;;;;;;;6.47;3.70;;;9.10;99.90;;;;;;4983550;28;20038;-81
2021/12/17 14:44:04;;;;;;;7.38;3.70;;;9.10;99.90;;;;;;4967216;28;20034;-80
2021/12/17 14:46:47;;;;;;;9.35;6.60;;;9.20;99.90;;;;;;4985733;28;20410;-80
2021/12/17 15:05:50;;;;;;;9.00;5.90;;;9.10;99.90;;;;;;4985493;28;20058;-81
2021/12/17 15:08:17;;;;;;;10.27;6.80;;;9.00;99.90;;;;;;4967646;28;20144;-81
2021/12/17 15:10:45;;;;;;;10.93;6.28;;;9.10;99.90;;;;;;4979185;28;20050;-81
2021/12/17 15:13:11;;;;;;;10.30;6.30;;;9.10;99.90;;;;;;4965274;28;20070;-81
2021/12/17 15:15:39;;;;;;;12.43;8.13;;;9.10;99.90;;;;;;4962873;28;20085;-81
2021/12/17 15:18:14;;;;;;;12.13;7.60;;;9.00;99.90;;;;;;4950978;28;20086;-82
2021/12/17 15:20:44;;;;;;;10.77;7.65;;;9.00;99.90;;;;;;4983081;28;20042;-81
2021/12/17 15:23:10;;;;;;;11.48;7.72;;;9.00;99.90;;;;;;4950737;28;20038;-81
2021/12/17 15:25:38;;;;;;;12.73;7.85;;;9.00;99.90;;;;;;4963316;28;20122;-81
2021/12/17 15:28:05;;;;;;;11.55;8.18;;;9.00;99.90;;;;;;4967306;28;20525;-81
2021/12/17 15:30:36;;;;;;;12.55;8.45;;;9.00;99.90;;;;;;4977179;28;20043;-81
2021/12/17 15:33:02;;;;;;;14.15;9.93;;;9.00;99.90;;;;;;4977359;28;20054;-81
2021/12/17 15:35:29;;;;;;;13.20;9.40;;;9.00;99.90;;;;;;4964821;28;20625;-81
2021/12/17 15:37:57;;;;;;;14.93;10.68;;;9.00;99.90;;;;;;4976317;28;20093;-82
2021/12/17 15:40:26;;;;;;;13.70;9.20;;;9.00;99.90;;;;;;4981296;28;20046;-82
2021/12/17 15:42:54;;;;;;;15.10;9.13;;;9.00;99.90;;;;;;4968795;28;20517;-82
2021/12/17 15:45:20;;;;;;;14.23;8.95;;;9.00;99.90;;;;;;4979296;28;20122;-81
2021/12/17 15:47:46;;;;;;;15.60;9.35;;;9.00;99.90;;;;;;4983550;28;20039;-82
2021/12/17 15:50:14;;;;;;;16.30;10.05;;;9.00;99.90;;;;;;4965673;28;20082;-81
2021/12/17 15:52:44;;;;;;;15.48;10.88;;;9.00;99.90;;;;;;4968958;28;20084;-83